Time;durP1;ratioP1;P1;durP2;ratioP2;P2;SDS_P1;SDS_P2;PMS_P1;PMS_P2;Temp;Humidity;BMP_temperature;BMP_pressure;BME280_temperature;BME280_humidity;BME280_pressure;Samples;Min_cycle;Max_cycle;Signal;HPM_P1;HPM_P2
2023/09/10 00:00:45;;;;;;;7.65;4.15;;;;;;;26.93;39.97;100040.56;4484230;32;33651;-68
2023/09/10 00:03:13;;;;;;;8.68;4.25;;;;;;;26.93;39.96;100043.31;4482764;32;33710;-67
2023/09/10 00:05:41;;;;;;;7.72;4.65;;;;;;;26.92;39.81;100044.41;4484189;32;34602;-68
2023/09/10 00:08:08;;;;;;;6.68;4.60;;;;;;;26.92;39.90;100034.28;4484188;32;33547;-66
2023/09/10 00:10:37;;;;;;;7.12;4.85;;;;;;;26.92;39.92;100033.44;4484020;32;34103;-67
2023/09/10 00:13:05;;;;;;;7.62;4.62;;;;;;;26.91;39.88;100026.31;4484093;32;34039;-66
2023/09/10 00:15:32;;;;;;;7.68;4.50;;;;;;;26.90;39.82;100033.66;4483987;32;34951;-66
2023/09/10 00:18:00;;;;;;;7.45;4.53;;;;;;;26.91;39.77;100029.03;4483944;32;33955;-65
2023/09/10 00:20:28;;;;;;;7.22;4.00;;;;;;;26.91;39.65;100029.03;4483993;32;33401;-66
2023/09/10 00:22:56;;;;;;;6.62;4.53;;;;;;;26.91;39.74;100029.03;4483966;32;34300;-66
2023/09/10 00:25:24;;;;;;;7.25;4.65;;;;;;;26.89;39.91;100032.00;4484017;32;33662;-66
2023/09/10 00:27:52;;;;;;;8.02;5.40;;;;;;;26.90;39.91;100038.31;4483979;32;33025;-66
2023/09/10 00:30:19;;;;;;;6.40;3.90;;;;;;;26.88;39.90;100035.81;4483519;32;33327;-67
2023/09/10 00:32:47;;;;;;;6.25;4.22;;;;;;;26.87;39.93;100031.44;4483917;32;33767;-66
2023/09/10 00:35:15;;;;;;;7.32;4.30;;;;;;;26.88;39.82;100030.34;4483872;32;34738;-69
2023/09/10 00:37:42;;;;;;;7.00;4.70;;;;;;;26.87;40.10;100025.12;4483963;32;34487;-66
2023/09/10 00:40:11;;;;;;;8.63;4.43;;;;;;;26.87;40.15;100027.88;4483822;32;33210;-68
2023/09/10 00:42:39;;;;;;;6.00;4.15;;;;;;;26.87;40.11;100027.88;4483890;32;33663;-65
2023/09/10 00:45:07;;;;;;;8.55;4.57;;;;;;;26.87;39.87;100030.59;4482480;32;33991;-67
2023/09/10 00:47:36;;;;;;;10.10;4.68;;;;;;;26.85;40.28;100025.34;4483545;32;34119;-66
2023/09/10 00:50:05;;;;;;;6.87;4.35;;;;;;;26.86;40.30;100028.91;4482261;32;34411;-67
2023/09/10 00:52:33;;;;;;;6.95;4.65;;;;;;;26.87;40.28;100027.88;4482197;32;34406;-67
2023/09/10 00:55:00;;;;;;;6.93;4.50;;;;;;;26.86;40.32;100029.78;4483656;32;33984;-66
2023/09/10 00:57:28;;;;;;;9.70;4.93;;;;;;;26.85;40.39;100033.56;4469443;32;33682;-68
2023/09/10 00:59:56;;;;;;;7.85;4.78;;;;;;;26.86;40.46;100032.53;4483378;32;34094;-67
2023/09/10 01:02:24;;;;;;;15.23;5.18;;;;;;;26.85;40.53;100036.31;4469795;32;34903;-69
2023/09/10 01:04:51;;;;;;;7.50;4.47;;;;;;;26.84;40.41;100029.16;4483144;32;33540;-67
2023/09/10 01:07:19;;;;;;;6.53;3.95;;;;;;;26.84;40.41;100031.09;4483411;32;33563;-67
2023/09/10 01:09:47;;;;;;;9.43;4.90;;;;;;;26.84;40.40;100031.91;4483513;32;34187;-66
2023/09/10 01:12:35;;;;;;;6.53;4.12;;;;;;;26.83;40.40;100030.25;4483420;32;33620;-68
2023/09/10 01:15:07;;;;;;;8.32;4.55;;;;;;;26.84;40.38;100020.97;4470657;32;34135;-66
2023/09/10 01:17:45;;;;;;;6.37;4.22;;;;;;;26.84;40.39;100031.09;4482056;32;33840;-67
2023/09/10 01:20:24;;;;;;;6.53;4.37;;;;;;;26.84;40.41;100031.09;4469443;32;33919;-66
2023/09/10 01:23:14;;;;;;;6.32;4.30;;;;;;;26.84;40.36;100022.88;4468987;32;33746;-67
2023/09/10 01:25:42;;;;;;;6.57;4.62;;;;;;;26.84;40.36;100025.59;4469669;32;33770;-67
2023/09/10 01:28:10;;;;;;;6.25;4.55;;;;;;;26.83;40.33;100018.47;4481849;32;34439;-67
2023/09/10 01:30:38;;;;;;;7.82;4.50;;;;;;;26.80;40.39;100022.53;4482936;32;33335;-67
2023/09/10 01:33:35;;;;;;;7.30;4.07;;;;;;;26.81;40.34;100020.59;4483144;32;33894;-66
2023/09/10 01:36:17;;;;;;;6.32;4.65;;;;;;;26.80;40.32;100024.44;4479759;32;34020;-66
2023/09/10 01:38:50;;;;;;;7.35;4.37;;;;;;;26.82;40.18;100022.28;4481596;32;34680;-67
2023/09/10 01:41:18;;;;;;;6.85;4.55;;;;;;;26.81;40.22;100032.38;4469073;32;34138;-67
2023/09/10 01:43:46;;;;;;;6.45;4.43;;;;;;;26.79;40.23;100022.78;4468791;32;33579;-67
2023/09/10 01:46:14;;;;;;;7.00;4.37;;;;;;;26.79;40.27;100020.88;4468580;32;33819;-66
2023/09/10 01:48:42;;;;;;;8.23;4.55;;;;;;;26.80;40.22;100024.44;4481421;32;33823;-67
2023/09/10 01:51:10;;;;;;;6.85;4.25;;;;;;;26.80;40.02;100024.44;4469148;32;34379;-66
2023/09/10 01:53:38;;;;;;;7.30;4.55;;;;;;;26.79;40.14;100025.50;4482806;32;33663;-67
2023/09/10 01:56:05;;;;;;;7.03;4.55;;;;;;;26.78;40.11;100032.06;4483052;32;34080;-65
2023/09/10 01:58:33;;;;;;;7.12;4.10;;;;;;;26.78;40.06;100027.41;4482784;32;34334;-65
2023/09/10 02:01:01;;;;;;;6.62;4.65;;;;;;;26.78;40.34;100030.16;4482898;32;34011;-65
2023/09/10 02:03:28;;;;;;;6.72;4.47;;;;;;;26.77;40.43;100027.69;4482611;32;33884;-64
2023/09/10 02:05:58;;;;;;;6.93;4.07;;;;;;;26.78;40.38;100032.91;4482816;32;33927;-65
2023/09/10 02:08:26;;;;;;;9.88;4.28;;;;;;;26.78;40.34;100030.16;4482652;32;34044;-65
2023/09/10 02:10:54;;;;;;;7.95;4.37;;;;;;;26.78;40.40;100032.06;4482941;32;33669;-65
2023/09/10 02:13:22;;;;;;;7.45;4.47;;;;;;;26.78;40.35;100032.06;4482839;32;33976;-65
2023/09/10 02:15:49;;;;;;;7.07;4.47;;;;;;;26.78;40.23;100032.06;4483885;32;34098;-67
2023/09/10 02:18:17;;;;;;;7.60;4.25;;;;;;;26.78;40.31;100026.59;4483791;32;33670;-66
2023/09/10 02:20:45;;;;;;;6.72;4.18;;;;;;;26.77;40.30;100022.19;4484931;32;32858;-66
2023/09/10 02:23:12;;;;;;;6.87;4.30;;;;;;;26.77;40.32;100030.41;4484759;32;34912;-67
2023/09/10 02:25:40;;;;;;;6.97;4.50;;;;;;;26.76;40.31;100026.00;4484897;32;33990;-65
2023/09/10 02:28:08;;;;;;;9.00;4.90;;;;;;;26.76;40.32;100032.28;4483513;32;34975;-68
2023/09/10 02:30:35;;;;;;;7.20;4.30;;;;;;;26.76;40.32;100029.56;4484670;32;34325;-65
2023/09/10 02:33:06;;;;;;;7.47;4.53;;;;;;;26.75;40.27;100033.37;4484781;32;33987;-67
2023/09/10 02:35:34;;;;;;;6.68;4.15;;;;;;;26.75;40.28;100035.28;4484680;32;34057;-67
2023/09/10 02:38:02;;;;;;;6.28;4.32;;;;;;;26.75;40.20;100035.28;4484625;32;34392;-65
2023/09/10 02:40:30;;;;;;;6.47;4.22;;;;;;;26.74;40.14;100042.66;4484787;32;33352;-68
2023/09/10 02:42:58;;;;;;;6.15;4.55;;;;;;;26.74;40.15;100034.44;4484636;32;33844;-66
2023/09/10 02:45:25;;;;;;;6.15;4.15;;;;;;;26.76;40.23;100034.19;4484757;32;34918;-67
2023/09/10 02:47:53;;;;;;;8.30;3.95;;;;;;;26.75;40.20;100035.28;4484471;32;33888;-67
2023/09/10 02:50:21;;;;;;;7.57;4.15;;;;;;;26.74;40.17;100034.44;4484436;32;33344;-68
2023/09/10 02:52:48;;;;;;;9.25;4.18;;;;;;;26.74;40.17;100034.44;4484576;32;34832;-66
2023/09/10 02:55:16;;;;;;;7.65;4.70;;;;;;;26.74;40.16;100026.25;4484616;32;34037;-67
2023/09/10 02:57:44;;;;;;;6.03;4.20;;;;;;;26.73;40.16;100031.97;4484509;32;33839;-68
2023/09/10 03:00:12;;;;;;;7.28;4.22;;;;;;;26.73;40.19;100023.75;4483381;32;33281;-69
2023/09/10 03:02:40;;;;;;;10.57;4.55;;;;;;;26.71;40.19;100022.06;4484649;32;34856;-67
2023/09/10 03:05:08;;;;;;;6.18;3.97;;;;;;;26.71;40.16;100023.97;4484545;32;33691;-69
2023/09/10 03:07:36;;;;;;;7.28;4.25;;;;;;;26.70;40.13;100027.78;4484613;32;33764;-67
2023/09/10 03:10:04;;;;;;;8.80;4.62;;;;;;;26.71;40.13;100030.28;4484518;32;34160;-67
2023/09/10 03:12:31;;;;;;;7.15;4.05;;;;;;;26.71;40.12;100021.25;4484202;32;34909;-66
2023/09/10 03:14:59;;;;;;;6.82;4.40;;;;;;;26.69;40.12;100021.50;4484477;32;33733;-67
2023/09/10 03:17:27;;;;;;;7.53;4.32;;;;;;;26.69;40.04;100023.41;4484485;32;34875;-66
2023/09/10 03:19:55;;;;;;;6.22;4.60;;;;;;;26.68;39.99;100019.84;4484154;32;33192;-68
2023/09/10 03:22:23;;;;;;;6.72;4.62;;;;;;;26.68;40.05;100014.38;4484597;32;33993;-68
2023/09/10 03:24:50;;;;;;;7.90;4.32;;;;;;;26.69;40.06;100015.19;4484323;32;34867;-67
2023/09/10 03:27:18;;;;;;;6.78;4.30;;;;;;;26.68;39.99;100019.00;4483788;32;34310;-66
2023/09/10 03:29:45;;;;;;;7.47;4.40;;;;;;;26.68;39.99;100017.09;4484411;32;33653;-66
2023/09/10 03:32:13;;;;;;;8.20;4.50;;;;;;;26.67;39.99;100018.19;4484452;32;34113;-67
2023/09/10 03:34:44;;;;;;;5.70;4.05;;;;;;;26.67;40.04;100015.44;4484181;32;34811;-66
2023/09/10 03:37:12;;;;;;;5.93;4.10;;;;;;;26.66;40.09;100008.28;4484286;32;33841;-68
2023/09/10 03:39:40;;;;;;;8.10;4.45;;;;;;;26.67;40.00;100015.44;4484664;32;32886;-68
2023/09/10 03:42:08;;;;;;;6.55;4.55;;;;;;;26.66;40.00;100005.53;4484340;32;34617;-68
2023/09/10 03:44:36;;;;;;;6.47;4.45;;;;;;;26.66;39.98;100012.94;4484360;32;33880;-66
2023/09/10 03:47:04;;;;;;;6.82;4.20;;;;;;;26.67;39.97;100006.37;4484311;32;33919;-68
2023/09/10 03:49:32;;;;;;;6.45;4.22;;;;;;;26.66;40.06;100007.47;4484418;32;32979;-66
2023/09/10 03:52:00;;;;;;;8.43;5.00;;;;;;;26.65;39.91;100006.63;4484274;32;33166;-68
2023/09/10 03:54:27;;;;;;;7.60;4.87;;;;;;;26.64;39.86;100002.25;4484288;32;33920;-66
2023/09/10 03:56:55;;;;;;;7.62;4.40;;;;;;;26.65;39.87;100011.28;4484113;32;33969;-67
2023/09/10 03:59:22;;;;;;;7.10;4.55;;;;;;;26.65;39.85;100012.09;4484244;32;33351;-67
2023/09/10 04:01:52;;;;;;;7.10;4.80;;;;;;;26.64;39.83;100009.63;4484351;32;33888;-66
2023/09/10 04:04:20;;;;;;;6.85;4.50;;;;;;;26.66;39.82;100012.94;4484199;32;33681;-65
2023/09/10 04:06:47;;;;;;;7.25;4.70;;;;;;;26.64;39.86;100001.41;4469895;32;34819;-68
2023/09/10 04:09:15;;;;;;;7.03;4.25;;;;;;;26.64;39.79;100009.63;4484413;32;33543;-66
2023/09/10 04:11:43;;;;;;;6.32;4.20;;;;;;;26.63;39.89;100013.44;4484110;32;34277;-68
2023/09/10 04:14:10;;;;;;;6.10;4.15;;;;;;;26.63;39.87;100017.00;4484150;32;33996;-67
2023/09/10 04:16:38;;;;;;;7.70;4.62;;;;;;;26.62;39.89;100015.31;4482694;32;33842;-68
2023/09/10 04:19:06;;;;;;;9.60;4.70;;;;;;;26.63;39.88;100011.53;4484148;32;32926;-68
2023/09/10 04:21:34;;;;;;;6.95;4.43;;;;;;;26.62;39.90;100012.56;4483943;32;34702;-67
2023/09/10 04:24:02;;;;;;;7.30;4.43;;;;;;;26.62;39.85;100012.56;4483939;32;33576;-68
2023/09/10 04:26:30;;;;;;;7.55;4.62;;;;;;;26.62;39.89;100022.69;4484032;32;33886;-69
2023/09/10 04:28:58;;;;;;;8.48;4.53;;;;;;;26.62;39.92;100015.31;4484013;32;34184;-69
2023/09/10 04:31:26;;;;;;;8.15;4.28;;;;;;;26.61;39.88;100027.34;4483951;32;33889;-69
2023/09/10 04:33:54;;;;;;;6.25;4.78;;;;;;;26.61;39.82;100024.59;4482641;32;34740;-67
2023/09/10 04:36:22;;;;;;;7.50;4.50;;;;;;;26.61;39.71;100026.50;4483838;32;34562;-66
2023/09/10 04:38:50;;;;;;;6.75;4.37;;;;;;;26.60;39.71;100030.34;4482550;32;33286;-65
2023/09/10 04:41:18;;;;;;;7.50;4.45;;;;;;;26.59;39.75;100029.50;4483866;32;34745;-66
2023/09/10 04:43:46;;;;;;;9.18;4.62;;;;;;;26.61;39.74;100029.25;4484116;32;34639;-65
2023/09/10 04:46:13;;;;;;;9.02;4.70;;;;;;;26.60;39.73;100022.12;4483903;32;34125;-68
2023/09/10 04:48:42;;;;;;;8.93;5.00;;;;;;;26.59;39.75;100032.25;4483760;32;32869;-66
2023/09/10 04:51:10;;;;;;;6.50;4.55;;;;;;;26.60;39.77;100033.06;4482585;32;33730;-66
2023/09/10 04:53:37;;;;;;;8.40;4.53;;;;;;;26.60;39.69;100035.81;4483851;32;34020;-68
2023/09/10 04:56:05;;;;;;;8.90;4.62;;;;;;;26.60;39.70;100033.06;4483761;32;34144;-66
2023/09/10 04:58:33;;;;;;;9.75;4.87;;;;;;;26.59;39.70;100043.19;4483720;32;33660;-66
2023/09/10 05:01:01;;;;;;;8.13;4.72;;;;;;;26.58;39.74;100037.94;4483542;32;33960;-65
2023/09/10 05:03:30;;;;;;;7.15;4.93;;;;;;;26.59;39.69;100045.91;4482736;32;33853;-68
2023/09/10 05:05:58;;;;;;;;;;;;;;;26.57;39.65;100039.84;4470068;32;33999;-66
2023/09/10 05:08:27;;;;;;;6.68;4.30;;;;;;;26.67;39.53;100047.44;4483478;32;33394;-65
2023/09/10 05:10:55;;;;;;;7.20;4.50;;;;;;;26.59;39.74;100045.91;4482625;32;34296;-65
2023/09/10 05:13:23;;;;;;;6.55;4.40;;;;;;;26.58;39.52;100040.66;4469404;32;33255;-66
2023/09/10 05:15:54;;;;;;;8.88;4.85;;;;;;;26.58;39.76;100041.53;4483379;32;33947;-65
2023/09/10 05:18:26;;;;;;;6.37;4.43;;;;;;;26.57;39.70;100052.69;4483689;32;34075;-68
2023/09/10 05:20:54;;;;;;;6.70;4.50;;;;;;;26.56;39.81;100051.88;4481970;32;34651;-67
2023/09/10 05:23:22;;;;;;;6.60;4.50;;;;;;;26.57;39.88;100048.06;4483829;32;33885;-65
2023/09/10 05:25:50;;;;;;;8.48;4.35;;;;;;;26.57;39.92;100056.25;4483354;32;33679;-65
2023/09/10 05:28:19;;;;;;;7.68;4.32;;;;;;;26.57;39.97;100053.53;4482803;32;33499;-65
2023/09/10 05:30:46;;;;;;;7.35;4.57;;;;;;;26.57;39.97;100048.06;4483114;32;33966;-66
2023/09/10 05:33:16;;;;;;;10.43;4.72;;;;;;;26.57;39.88;100056.25;4481351;32;33775;-65
2023/09/10 05:35:53;;;;;;;7.68;4.45;;;;;;;26.58;39.97;100057.09;4483048;32;33781;-66
2023/09/10 05:38:21;;;;;;;9.27;4.75;;;;;;;26.59;39.88;100062.34;4483293;32;34141;-66
2023/09/10 05:40:49;;;;;;;7.35;4.53;;;;;;;26.57;39.89;100064.47;4482174;32;33871;-65
2023/09/10 05:43:17;;;;;;;9.02;4.60;;;;;;;26.57;40.07;100069.12;4483085;32;33731;-66
2023/09/10 05:45:45;;;;;;;6.53;4.53;;;;;;;26.57;39.98;100069.94;4481877;32;34054;-65
2023/09/10 05:48:12;;;;;;;6.55;4.15;;;;;;;26.55;39.98;100072.09;4483114;32;33336;-66
2023/09/10 05:50:43;;;;;;;7.97;4.97;;;;;;;26.57;40.01;100071.84;4482834;32;33948;-66
2023/09/10 05:53:11;;;;;;;7.53;4.90;;;;;;;26.57;40.07;100071.84;4484259;32;33881;-66
2023/09/10 05:55:40;;;;;;;8.00;5.03;;;;;;;26.57;40.06;100072.69;4485008;32;33817;-65
2023/09/10 05:58:07;;;;;;;9.70;4.62;;;;;;;26.57;40.14;100069.12;4484103;32;33408;-65
2023/09/10 06:00:35;;;;;;;6.62;4.65;;;;;;;26.57;40.17;100072.69;4470935;32;32954;-66
2023/09/10 06:03:06;;;;;;;8.98;5.00;;;;;;;26.56;40.21;100073.75;4484884;32;33812;-66
2023/09/10 06:05:34;;;;;;;6.90;4.50;;;;;;;26.56;40.20;100071.03;4484994;32;33819;-66
2023/09/10 06:08:02;;;;;;;8.48;4.85;;;;;;;26.57;40.21;100072.69;4485129;32;32993;-66
2023/09/10 06:10:30;;;;;;;10.35;4.62;;;;;;;26.56;40.17;100076.50;4484802;32;33623;-66
2023/09/10 06:12:57;;;;;;;7.30;4.85;;;;;;;26.56;40.19;100073.75;4484750;32;33592;-67
2023/09/10 06:15:27;;;;;;;8.90;4.80;;;;;;;26.57;40.27;100074.59;4484893;32;33962;-67
2023/09/10 06:17:55;;;;;;;7.18;4.87;;;;;;;26.57;40.35;100075.41;4484615;32;33062;-66
2023/09/10 06:20:22;;;;;;;8.73;4.57;;;;;;;26.57;40.49;100077.31;4484771;32;34650;-67
2023/09/10 06:22:51;;;;;;;9.80;5.20;;;;;;;26.57;40.59;100080.91;4484799;32;34003;-66
2023/09/10 06:25:19;;;;;;;7.00;4.65;;;;;;;26.57;40.67;100077.31;4484649;32;34556;-65
2023/09/10 06:27:47;;;;;;;7.75;4.82;;;;;;;26.58;40.67;100078.97;4484007;32;33440;-68
2023/09/10 06:30:14;;;;;;;7.35;4.75;;;;;;;26.58;40.63;100077.09;4483471;32;33580;-66
2023/09/10 06:32:42;;;;;;;7.20;4.93;;;;;;;26.58;40.67;100079.84;4484579;32;33819;-67
2023/09/10 06:35:10;;;;;;;8.48;4.80;;;;;;;26.59;40.63;100088.88;4481163;32;33992;-65
2023/09/10 06:37:38;;;;;;;8.85;4.68;;;;;;;26.59;40.69;100078.75;4484421;32;33616;-67
2023/09/10 06:40:07;;;;;;;7.37;4.82;;;;;;;26.59;40.56;100081.50;4484771;32;33626;-65
2023/09/10 06:42:34;;;;;;;14.20;5.47;;;;;;;26.59;40.58;100078.75;4470631;32;34861;-63
2023/09/10 06:45:02;;;;;;;9.45;5.15;;;;;;;26.59;40.61;100088.88;4470711;32;33898;-63
2023/09/10 06:47:30;;;;;;;6.72;4.55;;;;;;;26.58;40.58;100079.84;4484248;32;34298;-62
2023/09/10 06:49:58;;;;;;;8.13;4.97;;;;;;;26.57;40.58;100086.38;4484570;32;33601;-62
2023/09/10 06:52:25;;;;;;;11.52;5.07;;;;;;;26.56;40.58;100090.19;4484485;32;34745;-63
2023/09/10 06:54:54;;;;;;;6.87;4.97;;;;;;;26.55;40.61;100091.25;4484597;32;33509;-64
2023/09/10 06:57:24;;;;;;;8.65;4.80;;;;;;;26.54;40.66;100092.34;4484611;32;33299;-62
2023/09/10 06:59:51;;;;;;;8.35;5.30;;;;;;;26.54;40.70;100097.81;4484443;32;33981;-63
2023/09/10 07:02:20;;;;;;;11.48;5.35;;;;;;;26.53;40.74;100098.03;4483938;32;34231;-64
2023/09/10 07:04:49;;;;;;;7.55;4.78;;;;;;;26.53;40.75;100106.25;4484351;32;34473;-62
2023/09/10 07:07:17;;;;;;;8.07;5.00;;;;;;;26.51;40.78;100103.75;4484206;32;32965;-62
2023/09/10 07:09:44;;;;;;;8.85;5.35;;;;;;;26.51;40.86;100103.75;4483296;32;34695;-62
2023/09/10 07:12:12;;;;;;;7.68;4.90;;;;;;;26.50;40.90;100107.56;4484396;32;34674;-63
2023/09/10 07:14:39;;;;;;;8.23;5.10;;;;;;;26.50;40.90;100110.31;4484290;32;33487;-62
2023/09/10 07:17:07;;;;;;;9.63;5.43;;;;;;;26.49;40.89;100114.13;4484384;32;34193;-63
2023/09/10 07:19:34;;;;;;;8.55;5.37;;;;;;;26.50;40.93;100113.03;4484660;31;33912;-62
2023/09/10 07:22:02;;;;;;;8.77;5.50;;;;;;;26.49;40.99;100108.66;4484431;32;34740;-63
2023/09/10 07:24:30;;;;;;;7.85;5.07;;;;;;;26.48;41.00;100112.44;4484129;32;34046;-62
2023/09/10 07:26:58;;;;;;;10.25;5.22;;;;;;;26.49;41.01;100111.37;4484338;32;33258;-62
2023/09/10 07:29:26;;;;;;;8.77;5.60;;;;;;;26.49;41.01;100116.84;4483599;32;34951;-62
2023/09/10 07:31:54;;;;;;;10.95;5.68;;;;;;;26.49;41.02;100114.13;4478435;31;32272;-63
2023/09/10 07:34:22;;;;;;;9.68;5.18;;;;;;;26.49;41.11;100116.84;4470056;32;34491;-65
2023/09/10 07:36:50;;;;;;;8.15;5.45;;;;;;;26.50;41.15;100112.22;4483768;32;33320;-65
2023/09/10 07:39:18;;;;;;;9.50;5.93;;;;;;;26.50;41.24;100118.53;4483844;32;33742;-65
2023/09/10 07:41:45;;;;;;;7.30;5.22;;;;;;;26.50;41.31;100110.31;4483729;32;34034;-64
2023/09/10 07:44:13;;;;;;;10.30;6.35;;;;;;;26.50;41.49;100121.25;4483678;32;34766;-65
2023/09/10 07:46:41;;;;;;;9.10;6.40;;;;;;;26.51;41.60;100117.44;4483802;32;33184;-64
2023/09/10 07:49:08;;;;;;;12.37;5.95;;;;;;;26.52;41.69;100118.28;4482732;32;33502;-64
2023/09/10 07:51:36;;;;;;;7.97;5.47;;;;;;;26.53;41.73;100117.19;4483578;32;33693;-63
2023/09/10 07:54:03;;;;;;;7.78;5.70;;;;;;;26.55;41.79;100120.53;4483519;32;33475;-65
2023/09/10 07:56:31;;;;;;;8.95;5.85;;;;;;;26.55;41.78;100112.31;4483595;32;32931;-65
2023/09/10 07:58:59;;;;;;;10.10;6.00;;;;;;;26.55;41.82;100113.16;4482217;31;33621;-65
2023/09/10 08:01:39;;;;;;;8.40;6.00;;;;;;;26.57;41.88;100101.97;4470268;31;33945;-65
2023/09/10 08:04:07;;;;;;;10.00;5.68;;;;;;;26.60;41.95;100107.78;4474401;31;34298;-64
2023/09/10 08:06:35;;;;;;;24.05;6.10;;;;;;;26.60;42.00;100096.84;4467895;31;33183;-63
2023/09/10 08:09:03;;;;;;;14.00;6.10;;;;;;;26.59;41.86;100097.91;4467723;31;33744;-64
2023/09/10 08:11:35;;;;;;;10.32;5.82;;;;;;;26.59;41.86;100102.56;4483303;31;33576;-64
2023/09/10 08:14:02;;;;;;;14.57;5.90;;;;;;;26.59;41.85;100094.34;4483857;32;34107;-64
2023/09/10 08:16:30;;;;;;;12.15;5.60;;;;;;;26.59;41.81;100105.31;4478432;31;34478;-64
2023/09/10 08:18:58;;;;;;;10.23;5.95;;;;;;;26.62;41.72;100096.59;4475081;31;33928;-63
2023/09/10 08:21:26;;;;;;;10.05;6.00;;;;;;;26.61;41.68;100103.97;4479057;31;33984;-63
2023/09/10 08:23:53;;;;;;;10.50;5.80;;;;;;;26.61;41.71;100097.66;4482087;32;33838;-64
2023/09/10 08:26:21;;;;;;;10.93;5.82;;;;;;;26.62;41.72;100100.16;4482746;32;33458;-63
2023/09/10 08:28:49;;;;;;;9.63;5.97;;;;;;;26.63;41.74;100101.03;4470403;31;33848;-64
2023/09/10 08:31:16;;;;;;;10.82;5.93;;;;;;;26.63;41.82;100101.03;4468292;32;34847;-63
2023/09/10 08:33:45;;;;;;;9.27;5.40;;;;;;;26.63;41.85;100090.06;4473641;31;34742;-64
2023/09/10 08:36:13;;;;;;;11.82;6.15;;;;;;;26.64;41.83;100095.28;4479929;31;33535;-63
2023/09/10 08:38:41;;;;;;;9.07;5.37;;;;;;;26.65;41.87;100090.66;4474941;31;33409;-64
2023/09/10 08:41:15;;;;;;;8.05;5.43;;;;;;;26.66;41.95;100092.31;4484126;32;33657;-63
2023/09/10 08:44:01;;;;;;;8.55;5.82;;;;;;;26.65;41.95;100091.47;4481021;31;33974;-63
2023/09/10 08:46:32;;;;;;;8.32;5.18;;;;;;;26.67;41.93;100092.09;4477663;31;33177;-64
2023/09/10 08:49:00;;;;;;;9.85;5.70;;;;;;;26.65;41.98;100080.53;4472824;31;33578;-64
2023/09/10 08:51:28;;;;;;;9.50;5.50;;;;;;;26.65;42.00;100088.75;4468067;32;34169;-64
2023/09/10 08:53:57;;;;;;;11.00;5.72;;;;;;;26.65;42.02;100088.75;4479360;31;33728;-64
2023/09/10 08:56:25;;;;;;;9.55;5.78;;;;;;;26.67;42.02;100083.00;4483003;31;33118;-64
2023/09/10 08:58:52;;;;;;;7.85;5.60;;;;;;;26.65;42.05;100086.00;4476473;31;35314;-64
2023/09/10 09:01:21;;;;;;;8.38;5.32;;;;;;;26.66;42.08;100079.44;4469633;32;34100;-64
2023/09/10 09:03:49;;;;;;;8.13;5.90;;;;;;;26.67;42.08;100083.00;4475963;31;34677;-63
2023/09/10 09:06:17;;;;;;;9.15;5.40;;;;;;;26.69;42.13;100089.09;4470854;31;33711;-63
2023/09/10 09:08:47;;;;;;;10.27;5.75;;;;;;;26.68;42.10;100080.06;4477172;31;34659;-63
2023/09/10 09:11:15;;;;;;;8.32;5.00;;;;;;;26.68;42.08;100081.97;4467955;32;33659;-64
2023/09/10 09:13:44;;;;;;;7.87;5.37;;;;;;;26.68;42.06;100071.84;4466224;32;33799;-64
2023/09/10 09:16:12;;;;;;;7.22;5.05;;;;;;;26.69;42.03;100069.94;4467610;31;33587;-63
2023/09/10 09:18:40;;;;;;;7.78;5.37;;;;;;;26.71;42.02;100071.34;4470153;31;34712;-64
2023/09/10 09:21:11;;;;;;;8.48;4.95;;;;;;;26.70;42.01;100066.12;4466395;32;34570;-64
2023/09/10 09:23:57;;;;;;;9.32;5.45;;;;;;;26.71;42.06;100059.56;4473828;31;33122;-64
2023/09/10 09:26:26;;;;;;;9.27;5.43;;;;;;;26.74;41.99;100066.47;4467508;32;34183;-64
2023/09/10 09:28:56;;;;;;;7.22;5.37;;;;;;;26.72;41.99;100066.72;4472317;31;33857;-64
2023/09/10 09:31:24;;;;;;;9.88;5.70;;;;;;;26.74;41.90;100067.31;4469438;32;33827;-64
2023/09/10 09:33:52;;;;;;;7.60;5.07;;;;;;;26.73;41.84;100060.16;4479348;31;34897;-64
2023/09/10 09:36:24;;;;;;;11.48;4.93;;;;;;;26.74;41.83;100056.34;4485274;32;33350;-63
2023/09/10 09:38:51;;;;;;;7.43;4.97;;;;;;;26.74;41.79;100056.34;4474499;31;34745;-64
2023/09/10 09:41:19;;;;;;;9.25;5.25;;;;;;;26.75;41.75;100055.28;4485244;32;34831;-63
2023/09/10 09:43:47;;;;;;;12.20;5.15;;;;;;;26.76;41.73;100058.84;4482646;31;34512;-64
2023/09/10 09:46:15;;;;;;;10.35;5.18;;;;;;;26.76;41.71;100050.63;4469386;32;33516;-64
2023/09/10 09:48:43;;;;;;;7.47;4.72;;;;;;;26.77;41.69;100053.13;4457317;31;33771;-64
2023/09/10 09:51:11;;;;;;;8.40;5.15;;;;;;;26.76;41.65;100048.72;4467190;32;34040;-63
2023/09/10 09:53:38;;;;;;;8.57;5.30;;;;;;;26.78;41.59;100051.22;4467585;32;34851;-64
2023/09/10 09:56:07;;;;;;;7.40;4.95;;;;;;;26.78;41.54;100053.97;4479763;31;33537;-65
2023/09/10 09:58:35;;;;;;;7.12;5.20;;;;;;;26.78;41.50;100046.59;4479790;31;34789;-64
2023/09/10 10:01:05;;;;;;;10.60;5.35;;;;;;;26.78;41.43;100048.50;4469218;32;34796;-64
2023/09/10 10:03:33;;;;;;;7.82;4.43;;;;;;;26.78;41.38;100041.09;4473442;31;33721;-64
2023/09/10 10:06:01;;;;;;;6.78;4.47;;;;;;;26.79;41.31;100036.47;4473572;31;33156;-64
2023/09/10 10:08:29;;;;;;;8.55;4.87;;;;;;;26.79;41.28;100039.19;4463165;32;33875;-63
2023/09/10 10:10:57;;;;;;;7.53;4.80;;;;;;;26.80;41.23;100027.16;4485308;32;34790;-63
2023/09/10 10:13:26;;;;;;;6.47;4.50;;;;;;;26.79;41.17;100034.56;4467651;32;33781;-64
2023/09/10 10:15:54;;;;;;;8.30;5.30;;;;;;;26.79;41.13;100028.25;4475981;32;33143;-64
2023/09/10 10:18:23;;;;;;;9.13;5.13;;;;;;;26.79;41.08;100029.06;4469923;31;33865;-64
2023/09/10 10:20:50;;;;;;;7.00;4.75;;;;;;;26.80;40.98;100019.78;4468714;31;32173;-63
2023/09/10 10:23:19;;;;;;;7.97;5.03;;;;;;;26.81;40.91;100023.34;4470241;31;33844;-64
2023/09/10 10:25:54;;;;;;;7.57;4.80;;;;;;;26.81;40.82;100015.12;4484948;32;33511;-63
2023/09/10 10:28:21;;;;;;;7.35;4.95;;;;;;;26.82;40.73;100020.37;4475122;31;35341;-65
2023/09/10 10:30:54;;;;;;;9.02;5.62;;;;;;;26.83;40.54;100018.47;4484855;32;34423;-63
2023/09/10 10:33:24;;;;;;;7.43;4.85;;;;;;;26.82;40.51;100020.37;4454853;32;34517;-62
2023/09/10 10:36:15;;;;;;;7.15;5.00;;;;;;;26.83;40.43;100021.22;4468929;31;34337;-64
2023/09/10 10:38:43;;;;;;;8.15;4.87;;;;;;;26.86;40.25;100016.09;4476966;32;33743;-65
2023/09/10 10:41:16;;;;;;;9.20;5.18;;;;;;;26.85;40.29;100010.84;4481333;32;33882;-64
2023/09/10 10:43:47;;;;;;;9.13;5.37;;;;;;;26.84;40.30;100007.28;4483464;32;34801;-64
2023/09/10 10:46:14;;;;;;;9.80;4.70;;;;;;;26.84;40.26;100010.00;4472561;31;33557;-64
2023/09/10 10:48:42;;;;;;;8.43;5.15;;;;;;;26.86;40.15;100007.00;4477991;31;33939;-64
2023/09/10 10:51:12;;;;;;;7.05;5.03;;;;;;;26.85;40.10;100002.63;4469696;32;33600;-64
2023/09/10 10:53:40;;;;;;;;;;;;;;;26.85;40.10;100000.72;4459265;31;33817;-64
2023/09/10 10:56:07;;;;;;;7.32;4.78;;;;;;;26.95;39.84;100000.06;4468180;31;32928;-69
2023/09/10 10:58:39;;;;;;;11.48;4.62;;;;;;;26.88;39.98;99991.19;4468370;31;34000;-68
2023/09/10 11:01:07;;;;;;;8.07;5.25;;;;;;;26.86;40.11;99994.19;4469977;31;33482;-68
2023/09/10 11:03:35;;;;;;;8.93;5.37;;;;;;;26.86;40.13;99985.97;4456408;32;34189;-68
2023/09/10 11:06:06;;;;;;;10.73;5.22;;;;;;;26.86;40.15;99983.22;4468758;31;32922;-68
2023/09/10 11:08:41;;;;;;;8.70;5.12;;;;;;;26.85;40.18;99977.97;4481871;31;33531;-69
2023/09/10 11:11:10;;;;;;;10.10;5.12;;;;;;;26.87;40.20;99976.69;4481919;32;33935;-70
2023/09/10 11:14:05;;;;;;;9.98;5.15;;;;;;;26.84;40.36;99976.31;4477276;32;34728;-67
2023/09/10 11:16:42;;;;;;;8.27;5.12;;;;;;;26.86;40.39;99975.03;4472568;31;34234;-67
2023/09/10 11:19:42;;;;;;;7.18;5.30;;;;;;;26.84;40.33;99968.94;4483873;31;33735;-70
2023/09/10 11:22:10;;;;;;;9.85;5.15;;;;;;;26.87;40.30;99981.31;4484297;32;35502;-68
2023/09/10 11:24:39;;;;;;;9.85;5.47;;;;;;;26.86;40.17;99979.63;4468797;31;33826;-67
2023/09/10 11:27:23;;;;;;;9.38;5.03;;;;;;;26.86;40.14;99975.03;4454847;32;33464;-70
2023/09/10 11:30:13;;;;;;;9.73;5.22;;;;;;;26.89;40.07;99980.00;4454828;31;34742;-70
2023/09/10 11:32:41;;;;;;;10.73;5.22;;;;;;;26.90;39.96;99972.59;4469325;31;33747;-68